createdAt,value
2023-02-17T00:00:56.172Z,97.00
2023-02-17T00:03:24.665Z,97.10
2023-02-17T00:05:52.840Z,97.10
2023-02-17T00:08:22.019Z,97.10
2023-02-17T00:10:57.487Z,97.10
2023-02-17T00:13:25.497Z,97.10
2023-02-17T00:15:53.473Z,97.20
2023-02-17T00:18:21.378Z,97.10
2023-02-17T00:20:49.220Z,97.00
2023-02-17T00:23:17.245Z,97.00
2023-02-17T00:25:46.439Z,97.00
2023-02-17T00:28:14.241Z,97.00
2023-02-17T00:30:42.219Z,96.90
2023-02-17T00:33:10.068Z,97.00
2023-02-17T00:35:41.513Z,97.10
2023-02-17T00:38:09.428Z,97.10
2023-02-17T00:40:37.226Z,97.10
2023-02-17T00:43:06.509Z,97.10
2023-02-17T00:45:34.434Z,97.10
2023-02-17T00:48:02.298Z,97.10
2023-02-17T00:50:30.178Z,97.00
2023-02-17T00:52:57.986Z,96.90
2023-02-17T00:55:26.675Z,96.80
2023-02-17T00:57:54.515Z,96.80
2023-02-17T01:00:24.006Z,96.90
2023-02-17T01:02:51.830Z,97.00
2023-02-17T01:05:19.712Z,97.00
2023-02-17T01:07:47.510Z,97.10
2023-02-17T01:10:15.397Z,97.10
2023-02-17T01:12:43.180Z,97.20
2023-02-17T01:15:11.450Z,97.20
2023-02-17T01:17:40.601Z,97.20
2023-02-17T01:20:09.698Z,97.10
2023-02-17T01:22:39.290Z,97.10
2023-02-17T01:25:07.765Z,97.10
2023-02-17T01:27:36.245Z,97.10
2023-02-17T01:30:05.026Z,97.10
2023-02-17T01:32:32.887Z,97.10
2023-02-17T01:35:02.053Z,97.10
2023-02-17T01:37:29.892Z,97.10
2023-02-17T01:39:57.713Z,97.10
2023-02-17T01:42:25.873Z,97.20
2023-02-17T01:45:30.993Z,97.20
2023-02-17T01:48:02.742Z,97.20
2023-02-17T01:50:35.583Z,97.20
2023-02-17T01:53:05.430Z,97.30
2023-02-17T01:55:34.876Z,97.30
2023-02-17T01:58:05.719Z,97.30
2023-02-17T02:00:35.205Z,97.40
2023-02-17T02:03:05.201Z,97.40
2023-02-17T02:05:36.542Z,97.40
2023-02-17T02:08:06.806Z,97.40
2023-02-17T02:10:34.692Z,97.30
2023-02-17T02:13:02.657Z,97.30
2023-02-17T02:15:35.173Z,97.40
2023-02-17T02:18:32.641Z,97.30
2023-02-17T02:21:35.954Z,97.40
2023-02-17T02:24:18.688Z,97.50
2023-02-17T02:27:11.414Z,97.50
2023-02-17T02:30:03.589Z,97.50
2023-02-17T02:32:46.750Z,97.50
2023-02-17T02:35:19.495Z,97.50
2023-02-17T02:37:53.118Z,97.50
2023-02-17T02:40:24.530Z,97.50
2023-02-17T02:42:52.541Z,97.80
2023-02-17T02:45:20.619Z,97.50
2023-02-17T02:47:52.025Z,97.50
2023-02-17T02:50:23.460Z,97.90
2023-02-17T02:53:05.798Z,97.60
2023-02-17T02:55:45.283Z,97.60
2023-02-17T02:58:19.445Z,97.60
2023-02-17T03:00:56.006Z,97.60
2023-02-17T03:03:32.905Z,97.70
2023-02-17T03:06:07.342Z,97.70
2023-02-17T03:08:39.248Z,97.80
2023-02-17T03:11:07.677Z,97.90
2023-02-17T03:13:39.418Z,97.90
2023-02-17T03:16:09.035Z,98.00
2023-02-17T03:18:38.225Z,98.00
2023-02-17T03:21:12.133Z,98.00
2023-02-17T03:23:39.944Z,98.10
2023-02-17T03:26:08.054Z,98.20
2023-02-17T03:28:35.935Z,98.10
2023-02-17T03:31:03.898Z,98.20
2023-02-17T03:33:31.686Z,98.20
2023-02-17T03:36:00.826Z,98.30
2023-02-17T03:38:28.625Z,98.30
2023-02-17T03:40:56.425Z,98.30
2023-02-17T03:43:24.248Z,98.30
2023-02-17T03:45:52.081Z,98.30
2023-02-17T03:48:19.875Z,98.30
2023-02-17T03:50:47.667Z,98.30
2023-02-17T03:53:16.797Z,98.20
2023-02-17T03:55:44.587Z,98.20
2023-02-17T03:58:12.504Z,98.20
2023-02-17T04:00:40.320Z,98.20
2023-02-17T04:03:08.136Z,98.30
2023-02-17T04:05:35.970Z,98.30
2023-02-17T04:08:03.831Z,98.30
2023-02-17T04:10:33.019Z,98.30
2023-02-17T04:13:00.966Z,98.30
2023-02-17T04:15:29.879Z,98.40
2023-02-17T04:17:57.748Z,98.40
2023-02-17T04:20:25.876Z,98.40
2023-02-17T04:22:53.786Z,98.40
2023-02-17T04:25:21.740Z,98.40
2023-02-17T04:27:50.917Z,98.40
2023-02-17T04:30:18.959Z,98.40
2023-02-17T04:32:46.819Z,98.40
2023-02-17T04:35:14.636Z,98.40
2023-02-17T04:37:42.619Z,98.40
2023-02-17T04:40:11.519Z,98.40
2023-02-17T04:42:39.828Z,98.50
2023-02-17T04:45:10.318Z,98.40
2023-02-17T04:47:38.208Z,98.50
2023-02-17T04:50:08.148Z,98.50
2023-02-17T04:52:36.028Z,98.50
2023-02-17T04:55:04.416Z,98.50
2023-02-17T04:57:32.318Z,98.40
2023-02-17T05:00:00.441Z,98.50
2023-02-17T05:02:30.529Z,98.40
2023-02-17T05:04:58.559Z,98.60
2023-02-17T05:07:26.596Z,98.40
2023-02-17T05:09:54.903Z,98.50
2023-02-17T05:12:22.787Z,98.60
2023-02-17T05:14:50.648Z,98.60
2023-02-17T05:17:18.483Z,98.70
2023-02-17T05:19:47.666Z,98.70
2023-02-17T05:22:15.678Z,98.90
2023-02-17T05:24:43.486Z,98.90
2023-02-17T05:27:11.725Z,99.00
2023-02-17T05:29:39.554Z,99.10
2023-02-17T05:32:07.473Z,99.00
2023-02-17T05:34:35.479Z,99.00
2023-02-17T05:37:04.797Z,99.00
2023-02-17T05:39:32.663Z,98.90
2023-02-17T05:42:00.546Z,98.90
2023-02-17T05:44:28.725Z,98.80
2023-02-17T05:46:57.280Z,98.80
2023-02-17T05:49:25.180Z,98.70
2023-02-17T05:51:53.017Z,98.80
2023-02-17T05:54:22.237Z,98.80
2023-02-17T05:56:50.127Z,98.80
2023-02-17T05:59:18.468Z,98.90
2023-02-17T06:01:46.338Z,98.90
2023-02-17T06:04:14.141Z,98.90
2023-02-17T06:06:41.982Z,98.90
2023-02-17T06:09:09.870Z,99.00
2023-02-17T06:11:39.288Z,99.10
2023-02-17T06:14:07.120Z,99.10
2023-02-17T06:16:35.087Z,99.00
2023-02-17T06:19:05.057Z,99.00
2023-02-17T06:21:33.299Z,99.10
2023-02-17T06:24:01.175Z,99.00
2023-02-17T06:26:29.067Z,99.00
2023-02-17T06:28:58.238Z,99.00
2023-02-17T06:31:26.201Z,99.00
2023-02-17T06:33:55.491Z,99.00
2023-02-17T06:36:23.372Z,99.10
2023-02-17T06:38:51.282Z,99.10
2023-02-17T06:41:19.200Z,99.10
2023-02-17T06:43:47.095Z,99.00
2023-02-17T06:46:16.350Z,98.90
2023-02-17T06:48:44.281Z,98.90
2023-02-17T06:51:12.132Z,99.00
2023-02-17T06:53:39.969Z,99.00
2023-02-17T06:56:08.382Z,98.90
2023-02-17T06:58:37.613Z,99.20
2023-02-17T07:01:06.036Z,99.20
2023-02-17T07:03:35.222Z,99.30
2023-02-17T07:06:03.223Z,99.30
2023-02-17T07:08:32.455Z,99.30
2023-02-17T07:11:06.132Z,99.30
2023-02-17T07:13:34.055Z,99.40
2023-02-17T07:16:02.058Z,99.40
2023-02-17T07:18:30.170Z,99.40
2023-02-17T07:20:59.347Z,99.50
2023-02-17T07:23:27.399Z,99.50
2023-02-17T07:25:55.324Z,99.50
2023-02-17T07:28:23.272Z,99.40
2023-02-17T07:30:51.146Z,99.50
2023-02-17T07:33:19.121Z,99.40
2023-02-17T07:35:46.974Z,99.30
2023-02-17T07:38:16.313Z,99.30
2023-02-17T07:40:44.192Z,99.40
2023-02-17T07:43:12.124Z,99.40
2023-02-17T07:45:40.081Z,99.40
2023-02-17T07:48:08.197Z,99.40
2023-02-17T07:50:36.096Z,99.60
2023-02-17T07:53:04.518Z,99.90
2023-02-17T07:55:33.790Z,99.50
2023-02-17T07:58:01.671Z,99.70
2023-02-17T08:00:29.526Z,99.70
2023-02-17T08:02:57.438Z,99.70
2023-02-17T08:05:25.424Z,99.80
2023-02-17T08:08:13.264Z,99.90
2023-02-17T08:11:00.146Z,99.90
2023-02-17T08:13:29.087Z,99.90
2023-02-17T08:15:56.931Z,99.90
2023-02-17T08:18:24.816Z,99.90
2023-02-17T08:20:53.081Z,99.90
2023-02-17T08:23:21.897Z,99.90
2023-02-17T08:25:51.150Z,99.90
2023-02-17T08:28:19.073Z,99.90
2023-02-17T08:30:46.992Z,99.90
2023-02-17T08:33:18.727Z,99.90
2023-02-17T08:35:46.898Z,99.90
2023-02-17T08:38:15.227Z,99.90
2023-02-17T08:40:43.057Z,99.90
2023-02-17T08:43:21.620Z,99.90
2023-02-17T08:45:49.739Z,99.90
2023-02-17T08:48:17.645Z,99.90
2023-02-17T08:50:48.658Z,99.90
2023-02-17T08:53:16.587Z,99.90
2023-02-17T08:55:49.529Z,99.90
2023-02-17T08:58:19.371Z,99.90
2023-02-17T09:00:47.388Z,99.90
2023-02-17T09:03:15.688Z,99.90
2023-02-17T09:05:43.621Z,99.90
2023-02-17T09:08:11.706Z,99.90
2023-02-17T09:10:40.197Z,99.90
2023-02-17T09:13:08.144Z,99.90
2023-02-17T09:15:37.435Z,99.90
2023-02-17T09:18:05.642Z,99.90
2023-02-17T09:20:33.624Z,99.90
2023-02-17T09:23:01.531Z,99.90
2023-02-17T09:25:29.541Z,99.90
2023-02-17T09:27:59.789Z,99.90
2023-02-17T09:30:27.840Z,99.90
2023-02-17T09:32:57.183Z,99.90
2023-02-17T09:35:25.074Z,99.90
2023-02-17T09:37:53.405Z,99.90
2023-02-17T09:40:24.953Z,99.90
2023-02-17T09:42:52.800Z,99.90
2023-02-17T09:45:25.703Z,99.90
2023-02-17T09:47:58.052Z,99.90
2023-02-17T09:50:30.690Z,99.90
2023-02-17T09:53:04.543Z,99.90
2023-02-17T09:55:36.275Z,99.90
2023-02-17T09:58:07.838Z,99.90
2023-02-17T10:00:39.863Z,99.90
2023-02-17T10:03:18.124Z,99.90
2023-02-17T10:05:51.373Z,99.90
2023-02-17T10:08:23.495Z,99.90
2023-02-17T10:10:56.211Z,99.90
2023-02-17T10:13:28.467Z,99.90
2023-02-17T10:16:00.200Z,99.90
2023-02-17T10:18:35.959Z,99.90
2023-02-17T10:21:08.293Z,99.90
2023-02-17T10:23:36.701Z,99.90
2023-02-17T10:26:17.347Z,99.90
2023-02-17T10:28:52.632Z,99.90
2023-02-17T10:31:37.945Z,99.90
2023-02-17T10:34:14.803Z,99.90
2023-02-17T10:36:54.571Z,99.90
2023-02-17T10:39:40.195Z,99.90
2023-02-17T10:42:15.371Z,99.90
2023-02-17T10:44:44.601Z,99.90
2023-02-17T10:47:13.754Z,99.90
2023-02-17T10:49:46.777Z,99.90
2023-02-17T10:52:17.382Z,99.90
2023-02-17T10:54:49.663Z,99.90
2023-02-17T10:57:20.241Z,99.90
2023-02-17T10:59:50.147Z,99.90
2023-02-17T11:02:22.032Z,99.90
2023-02-17T11:04:54.977Z,99.90
2023-02-17T11:07:32.400Z,99.90
2023-02-17T11:10:03.292Z,99.90
2023-02-17T11:12:39.872Z,99.90
2023-02-17T11:15:17.345Z,99.90
2023-02-17T11:17:46.492Z,99.90
2023-02-17T11:20:33.841Z,99.90
2023-02-17T11:23:06.870Z,99.90
2023-02-17T11:25:37.739Z,99.90
2023-02-17T11:28:08.208Z,99.90
2023-02-17T11:30:37.251Z,99.90
2023-02-17T11:33:14.820Z,99.90
2023-02-17T11:35:51.599Z,99.70
2023-02-17T11:38:22.620Z,99.70
2023-02-17T11:40:56.056Z,99.50
2023-02-17T11:43:24.795Z,99.60
2023-02-17T11:46:02.277Z,99.70
2023-02-17T11:48:51.527Z,99.80
2023-02-17T11:51:26.502Z,99.80
2023-02-17T11:54:04.856Z,99.60
2023-02-17T11:56:37.048Z,99.60
2023-02-17T11:59:25.633Z,99.60
2023-02-17T12:02:07.160Z,99.50
2023-02-17T12:04:39.952Z,99.10
2023-02-17T12:07:26.350Z,99.10
2023-02-17T12:10:01.777Z,98.90
2023-02-17T12:12:41.136Z,99.00
2023-02-17T12:15:29.981Z,99.10
2023-02-17T12:18:07.238Z,99.30
2023-02-17T12:20:42.751Z,99.50
2023-02-17T12:23:25.613Z,99.40
2023-02-17T12:25:58.662Z,99.40
2023-02-17T12:28:48.612Z,99.50
2023-02-17T12:31:30.725Z,99.60
2023-02-17T12:34:03.763Z,99.10
2023-02-17T12:36:34.717Z,98.80
2023-02-17T12:39:14.466Z,98.70
2023-02-17T12:41:46.499Z,98.60
2023-02-17T12:44:18.174Z,98.60
2023-02-17T12:46:52.765Z,98.50
2023-02-17T12:49:26.433Z,98.30
2023-02-17T12:51:58.451Z,98.00
2023-02-17T12:54:34.415Z,97.90
2023-02-17T12:57:16.992Z,98.00
2023-02-17T12:59:46.794Z,97.80
2023-02-17T13:02:16.552Z,97.60
2023-02-17T13:04:46.095Z,97.80
2023-02-17T13:07:42.177Z,97.50
2023-02-17T13:10:28.727Z,97.50
2023-02-17T13:12:59.839Z,97.20
2023-02-17T13:15:35.196Z,97.40
2023-02-17T13:18:05.991Z,97.50
2023-02-17T13:20:45.908Z,97.50
2023-02-17T13:23:15.828Z,97.50
2023-02-17T13:25:45.011Z,97.50
2023-02-17T13:28:34.423Z,97.50
2023-02-17T13:31:12.568Z,97.50
2023-02-17T13:33:49.684Z,97.60
2023-02-17T13:36:21.749Z,97.70
2023-02-17T13:39:01.678Z,97.70
2023-02-17T13:41:35.541Z,97.50
2023-02-17T13:44:25.043Z,97.30
2023-02-17T13:46:53.235Z,97.20
2023-02-17T13:49:25.046Z,97.30
2023-02-17T13:51:52.956Z,97.10
2023-02-17T13:54:22.625Z,97.00
2023-02-17T13:56:56.173Z,96.90
2023-02-17T13:59:27.388Z,97.00
2023-02-17T14:01:55.906Z,96.80
2023-02-17T14:04:26.281Z,96.80
2023-02-17T14:06:56.288Z,97.30
2023-02-17T14:09:26.804Z,97.00
2023-02-17T14:11:57.635Z,96.70
2023-02-17T14:14:29.677Z,96.60
2023-02-17T14:17:03.467Z,96.80
2023-02-17T14:19:42.328Z,96.90
2023-02-17T14:22:26.409Z,96.90
2023-02-17T14:25:02.384Z,97.00
2023-02-17T14:27:43.145Z,96.90
2023-02-17T14:30:15.301Z,96.50
2023-02-17T14:32:43.261Z,96.60
2023-02-17T14:35:22.159Z,96.60
2023-02-17T14:37:50.473Z,96.60
2023-02-17T14:40:20.635Z,96.50
2023-02-17T14:42:50.044Z,96.60
2023-02-17T14:45:19.159Z,96.40
2023-02-17T14:47:48.073Z,96.50
2023-02-17T14:50:17.389Z,96.50
2023-02-17T14:52:46.815Z,96.30
2023-02-17T14:55:19.780Z,96.50
2023-02-17T14:57:49.001Z,96.50
2023-02-17T15:00:17.602Z,96.60
2023-02-17T15:02:45.483Z,96.60
2023-02-17T15:05:13.377Z,96.50
2023-02-17T15:07:42.310Z,96.40
2023-02-17T15:10:19.093Z,96.30
2023-02-17T15:12:47.032Z,96.10
2023-02-17T15:15:18.602Z,96.10
2023-02-17T15:17:46.798Z,96.10
2023-02-17T15:20:16.210Z,95.70
2023-02-17T15:22:44.668Z,95.70
2023-02-17T15:25:19.178Z,95.80
2023-02-17T15:27:47.497Z,96.10
2023-02-17T15:30:18.667Z,95.90
2023-02-17T15:32:48.082Z,96.10
2023-02-17T15:35:18.702Z,96.10
2023-02-17T15:37:46.544Z,96.10
2023-02-17T15:40:16.213Z,95.90
2023-02-17T15:42:44.835Z,95.90
2023-02-17T15:45:18.324Z,95.90
2023-02-17T15:47:46.741Z,95.80
2023-02-17T15:50:20.420Z,95.80
2023-02-17T15:52:48.800Z,95.70
2023-02-17T15:55:17.294Z,95.70
2023-02-17T15:57:48.704Z,95.70
2023-02-17T16:00:24.966Z,95.70
2023-02-17T16:02:53.672Z,95.70
2023-02-17T16:05:23.676Z,95.90
2023-02-17T16:07:51.915Z,95.70
2023-02-17T16:10:21.857Z,95.70
2023-02-17T16:12:51.582Z,95.70
2023-02-17T16:15:22.935Z,95.70
2023-02-17T16:17:51.745Z,95.70
2023-02-17T16:20:22.089Z,95.70
2023-02-17T16:22:50.302Z,95.70
2023-02-17T16:25:19.880Z,95.70
2023-02-17T16:27:50.398Z,95.70
2023-02-17T16:30:22.786Z,95.70
2023-02-17T16:32:51.092Z,95.70
2023-02-17T16:35:21.184Z,95.70
2023-02-17T16:37:54.070Z,95.70
2023-02-17T16:40:23.989Z,95.70
2023-02-17T16:42:52.113Z,95.70
2023-02-17T16:45:23.587Z,95.70
2023-02-17T16:47:54.645Z,95.70
2023-02-17T16:50:28.211Z,95.70
2023-02-17T16:52:58.314Z,95.70
2023-02-17T16:55:29.305Z,95.70
2023-02-17T16:57:57.487Z,95.70
2023-02-17T17:00:29.737Z,95.80
2023-02-17T17:02:58.638Z,95.70
2023-02-17T17:05:28.327Z,95.70
2023-02-17T17:07:56.861Z,95.60
2023-02-17T17:10:26.551Z,95.70
2023-02-17T17:12:54.596Z,95.70
2023-02-17T17:15:23.080Z,95.90
2023-02-17T17:17:57.059Z,95.70
2023-02-17T17:20:31.002Z,95.90
2023-02-17T17:23:00.058Z,96.00
2023-02-17T17:25:29.087Z,96.20
2023-02-17T17:27:57.356Z,96.40
2023-02-17T17:30:30.177Z,96.40
2023-02-17T17:32:59.910Z,96.00
2023-02-17T17:35:28.152Z,96.00
2023-02-17T17:37:57.385Z,96.10
2023-02-17T17:40:29.876Z,95.90
2023-02-17T17:42:57.946Z,95.90
2023-02-17T17:45:26.420Z,96.00
2023-02-17T17:47:54.484Z,95.80
2023-02-17T17:50:25.343Z,95.80
2023-02-17T17:52:53.414Z,96.10
2023-02-17T17:55:21.386Z,96.20
2023-02-17T17:57:49.177Z,96.00
2023-02-17T18:00:19.489Z,95.90
2023-02-17T18:02:47.311Z,95.90
2023-02-17T18:05:15.250Z,96.00
2023-02-17T18:07:47.322Z,95.90
2023-02-17T18:10:16.273Z,95.80
2023-02-17T18:12:47.041Z,95.70
2023-02-17T18:15:15.867Z,95.70
2023-02-17T18:17:44.108Z,95.70
2023-02-17T18:20:13.890Z,95.70
2023-02-17T18:22:43.247Z,95.70
2023-02-17T18:25:12.518Z,95.80
2023-02-17T18:27:41.814Z,95.70
2023-02-17T18:30:11.505Z,95.70
2023-02-17T18:32:39.292Z,95.50
2023-02-17T18:35:07.562Z,95.40
2023-02-17T18:37:35.659Z,95.30
2023-02-17T18:40:05.069Z,95.00
2023-02-17T18:42:34.442Z,94.80
2023-02-17T18:45:02.303Z,94.40
2023-02-17T18:47:30.697Z,94.40
2023-02-17T18:49:58.508Z,94.70
2023-02-17T18:52:26.332Z,94.40
2023-02-17T18:54:54.109Z,94.50
2023-02-17T18:57:21.919Z,94.40
2023-02-17T18:59:51.052Z,94.30
2023-02-17T19:02:18.937Z,94.30
2023-02-17T19:04:46.718Z,94.30
2023-02-17T19:07:14.849Z,94.30
2023-02-17T19:09:43.244Z,94.50
2023-02-17T19:12:13.481Z,94.70
2023-02-17T19:14:42.319Z,94.90
2023-02-17T19:17:12.661Z,95.10
2023-02-17T19:19:41.393Z,95.20
2023-02-17T19:22:09.671Z,94.90
2023-02-17T19:24:38.764Z,95.10
2023-02-17T19:27:07.289Z,95.30
2023-02-17T19:29:35.643Z,95.60
2023-02-17T19:32:04.759Z,95.60
2023-02-17T19:34:33.906Z,95.70
2023-02-17T19:37:01.913Z,96.00
2023-02-17T19:39:29.744Z,96.10
2023-02-17T19:41:57.593Z,96.40
2023-02-17T19:44:25.405Z,96.60
2023-02-17T19:46:53.849Z,96.90
2023-02-17T19:49:21.678Z,97.10
2023-02-17T19:51:50.900Z,97.20
2023-02-17T19:54:18.738Z,97.50
2023-02-17T19:56:48.903Z,97.50
2023-02-17T19:59:17.068Z,97.60
2023-02-17T20:01:45.121Z,97.90
2023-02-17T20:04:13.039Z,98.00
2023-02-17T20:06:42.972Z,98.30
2023-02-17T20:09:15.648Z,98.40
2023-02-17T20:11:43.840Z,98.50
2023-02-17T20:14:11.927Z,98.70
2023-02-17T20:16:40.640Z,98.90
2023-02-17T20:19:09.181Z,98.90
2023-02-17T20:21:38.684Z,99.00
2023-02-17T20:24:06.909Z,99.20
2023-02-17T20:26:40.654Z,99.40
2023-02-17T20:29:08.955Z,99.40
2023-02-17T20:31:37.685Z,99.50
2023-02-17T20:34:06.686Z,99.70
2023-02-17T20:36:34.797Z,99.90
2023-02-17T20:39:02.895Z,99.90
2023-02-17T20:41:30.747Z,99.90
2023-02-17T20:44:02.918Z,99.90
2023-02-17T20:46:32.755Z,99.90
2023-02-17T20:49:00.535Z,99.90
2023-02-17T20:51:28.395Z,99.90
2023-02-17T20:53:56.155Z,99.90
2023-02-17T20:56:25.426Z,99.90
2023-02-17T20:58:53.654Z,99.90
2023-02-17T21:01:22.818Z,99.90
2023-02-17T21:03:50.710Z,99.90
2023-02-17T21:06:22.732Z,99.90
2023-02-17T21:08:52.956Z,99.90
2023-02-17T21:11:20.965Z,99.90
2023-02-17T21:13:49.010Z,99.90
2023-02-17T21:16:18.812Z,99.90
2023-02-17T21:18:48.056Z,99.90
2023-02-17T21:21:16.719Z,99.90
2023-02-17T21:23:44.730Z,99.90
2023-02-17T21:26:13.776Z,99.90
2023-02-17T21:28:41.900Z,99.90
2023-02-17T21:31:10.032Z,99.90
2023-02-17T21:33:41.970Z,99.90
2023-02-17T21:36:13.682Z,99.90
2023-02-17T21:38:41.589Z,99.90
2023-02-17T21:41:12.575Z,99.90
2023-02-17T21:43:58.643Z,99.90
2023-02-17T21:46:27.590Z,99.90
2023-02-17T21:48:57.320Z,99.90
2023-02-17T21:51:26.946Z,99.90
2023-02-17T21:53:55.130Z,99.90
2023-02-17T21:56:23.678Z,99.90
2023-02-17T21:58:53.586Z,99.90
2023-02-17T22:01:22.376Z,99.90
2023-02-17T22:03:50.228Z,99.90
2023-02-17T22:06:20.389Z,99.90
2023-02-17T22:08:49.503Z,99.90
2023-02-17T22:11:18.904Z,99.90
2023-02-17T22:13:46.857Z,99.90
2023-02-17T22:16:15.242Z,99.90
2023-02-17T22:18:43.256Z,99.90
2023-02-17T22:21:13.692Z,99.90
2023-02-17T22:23:43.717Z,99.90
2023-02-17T22:26:14.851Z,99.90
2023-02-17T22:28:42.851Z,99.90
2023-02-17T22:31:13.269Z,99.90
2023-02-17T22:33:41.322Z,99.90
2023-02-17T22:36:11.462Z,99.90
2023-02-17T22:38:39.629Z,99.90
2023-02-17T22:41:08.656Z,99.90
2023-02-17T22:43:39.834Z,99.60
2023-02-17T22:46:09.470Z,99.70
2023-02-17T22:48:39.025Z,99.80
2023-02-17T22:51:07.601Z,99.80
2023-02-17T22:53:36.138Z,99.80
2023-02-17T22:56:05.490Z,99.90
2023-02-17T22:58:34.433Z,99.80
2023-02-17T23:01:08.459Z,99.80
2023-02-17T23:03:37.184Z,99.80
2023-02-17T23:06:07.304Z,99.70
2023-02-17T23:08:36.009Z,99.60
2023-02-17T23:11:05.597Z,99.50
2023-02-17T23:13:33.601Z,99.50
2023-02-17T23:16:01.680Z,99.50
2023-02-17T23:18:32.598Z,99.60
2023-02-17T23:21:01.188Z,99.50
2023-02-17T23:23:29.039Z,99.40
2023-02-17T23:25:57.174Z,99.30
2023-02-17T23:28:26.428Z,99.00
2023-02-17T23:30:54.509Z,98.90
2023-02-17T23:33:25.155Z,98.80
2023-02-17T23:35:54.245Z,98.80
2023-02-17T23:38:22.917Z,98.70
2023-02-17T23:40:51.928Z,98.60
2023-02-17T23:43:20.182Z,98.70
2023-02-17T23:45:48.005Z,98.70
2023-02-17T23:48:15.839Z,98.80
2023-02-17T23:50:43.771Z,98.90
2023-02-17T23:53:12.890Z,98.90
2023-02-17T23:55:40.651Z,98.90
2023-02-17T23:58:08.430Z,99.30
